Accueil
METAR-TAF:

METAR-TAF

Aéroports :

Gastonia Municipal Airport

Gastonia, Caroline du Nord, États-Unis

latitude: 35-11-48N, longitude: 081-09-21W, altitude: 243 m

Observation

Le bulletin a été fait il y a 1 heure et 3 minutes, à 20:54 UTC
Vent 14 kt de ouest/sud-ouest avec des rafales jusqu'à 22 kt
Température 11°C
Humidité 37%
Pression 1015 hPa
Visibilité: 16.1 km
Nuages fragmentés à une hauteur de 6000 ft
Ciel couvert à une hauteur de 7500 ft

METAR: KAKH 282054Z AUTO 24014G22KT 10SM BKN060 OVC075 11/M03 A2996 RMK AO2 SLP149 T01061028 55018

Heure: 16:57 (21:57 UTC)


TAF: absent

Observations et prévisions météorologiques de plus de 4000 aéroports (messages METAR et TAF).

Les stations disponibles sont représentées par des disques jaunes et rouges sur la carte.

Passer la souris dessus pour voir le nom de la station.

Cliquer dessus pour voir les observations et prévisions météorologiques.

Pour changer de carte: cliquez sur les boutons verts avec une croix noire pour zoomer, sur le bouton vert avec un tiret pour effectuer un zoom arrière, ou sur les flèches vertes pour les cartes adjacentes.


METAR-TAF: